Latest Weather Observations for Perth Airport

IDW60801

Issued at 9:33 pm WST Wednesday 24 August 2016 (issued every 30 minutes, with the page automatically refreshed every 10 minutes)

About weather observations | Map of weather stations | Latest weather observations for WA | Other Formats
Station Details ID: 009021 Name: PERTH AIRPORT Lat: -31.93 Lon: 115.98 Height: 15.4 m
Data from the previous 72 hours. | See also: Recent months at Perth Airport
Date/Time
WST
Temp
°C
App
Temp
°C
Dew
Point
°C
Rel
Hum
%
Delta-T
°C
Wind Press
QNH
hPa
Press
MSL
hPa
Rain since
9am
mm
Dir  Spd
km/h
Gust
km/h
Spd
kts
Gust
kts
24/09:00pm 6.6 4.3 4.8 88 0.8 E 6 7 3 4 1025.1 1025.1 0.0
24/08:30pm 7.6 3.5 4.1 78 1.5 ESE 15 15 8 8 1025.1 1025.1 0.0
24/08:00pm 8.7 5.0 4.6 75 1.8 SE 13 15 7 8 1025.3 1025.3 0.0
24/07:30pm 9.8 6.1 4.6 70 2.3 ESE 13 15 7 8 1025.4 1025.4 0.0
24/07:00pm 11.3 7.5 4.1 61 3.2 ESE 13 15 7 8 1025.3 1025.3 0.0
24/06:30pm 12.2 8.4 3.9 57 3.7 ESE 13 19 7 10 1024.9 1024.9 0.0
24/06:00pm 13.0 8.0 3.6 53 4.2 ESE 19 24 10 13 1024.4 1024.4 0.0
24/05:30pm 14.4 8.9 2.0 43 5.4 E 20 33 11 18 1024.2 1024.2 0.0
24/05:00pm 15.3 9.9 2.2 41 5.8 ESE 20 35 11 19 1023.8 1023.8 0.0
24/04:30pm 16.0 10.6 2.3 39 6.1 E 20 30 11 16 1023.8 1023.8 0.0
24/04:00pm 16.1 10.7 1.5 37 6.4 E 19 35 10 19 1023.7 1023.7 0.0
24/03:30pm 16.6 11.7 2.0 37 6.5 ENE 17 24 9 13 1023.6 1023.6 0.0
24/03:00pm 16.4 11.3 1.0 35 6.7 E 17 28 9 15 1023.5 1023.5 0.0
24/02:30pm 16.0 10.9 1.0 36 6.5 ENE 17 28 9 15 1023.8 1023.8 0.0
24/02:00pm 15.7 11.4 1.2 37 6.3 E 13 28 7 15 1024.0 1024.0 0.0
24/01:30pm 15.5 11.0 -0.6 33 6.7 E 13 22 7 12 1024.3 1024.3 0.0
24/01:00pm 15.1 11.1 0.2 36 6.3 E 11 19 6 10 1024.6 1024.6 0.0
24/12:30pm 14.7 8.8 -0.5 35 6.3 E 20 30 11 16 1025.2 1025.2 0.0
24/12:00pm 14.5 9.3 -0.1 37 6.1 ENE 17 22 9 12 1025.6 1025.6 0.0
24/11:30am 14.0 8.4 0.1 38 5.8 ENE 19 28 10 15 1025.8 1025.8 0.0
24/11:00am 13.6 7.9 0.8 41 5.4 ESE 20 30 11 16 1026.0 1026.0 0.0
24/10:30am 12.7 7.3 1.0 45 4.9 E 19 28 10 15 1026.4 1026.4 0.0
24/10:00am 11.9 4.8 1.4 48 4.4 E 28 33 15 18 1026.5 1026.5 0.0
24/09:30am 10.8 3.8 1.7 53 3.8 E 28 32 15 17 1026.7 1026.7 0.0
24/09:00am 9.4 2.3 1.6 58 3.2 E 28 33 15 18 1026.6 1026.6 0.0
24/08:30am 8.1 0.3 1.7 64 2.6 E 32 39 17 21 1026.2 1026.2 0.0
24/08:00am 7.3 0.2 1.6 67 2.3 E 28 35 15 19 1025.8 1025.8 0.0
24/07:30am 6.6 0.7 1.6 70 2.0 E 22 30 12 16 1025.7 1025.7 0.0
24/07:00am 5.8 -0.5 1.5 74 1.7 E 24 33 13 18 1025.6 1025.6 0.0
24/06:30am 5.8 -0.5 1.5 74 1.7 E 24 33 13 18 1025.4 1025.4 0.0
24/06:00am 5.9 0.0 1.6 74 1.7 E 22 28 12 15 1025.2 1025.2 0.0
24/05:30am 6.4 0.8 1.4 70 2.0 E 20 28 11 15 1024.9 1024.9 0.0
24/05:00am 6.5 1.1 1.5 70 2.0 E 19 26 10 14 1024.9 1024.9 0.0
24/04:30am 6.8 1.5 1.6 69 2.1 E 19 24 10 13 1024.9 1024.9 0.0
24/04:00am 6.9 1.3 1.4 68 2.2 E 20 28 11 15 1024.9 1024.9 0.0
24/03:30am 7.2 1.6 1.5 67 2.3 E 20 28 11 15 1024.9 1024.9 0.0
24/03:00am 7.3 1.9 1.3 65 2.4 E 19 28 10 15 1025.0 1025.0 0.0
24/02:30am 7.4 2.0 1.4 66 2.4 E 19 24 10 13 1025.0 1025.0 0.0
24/02:00am 7.9 0.8 1.5 64 2.6 E 28 37 15 20 1025.0 1025.0 0.0
24/01:30am 8.1 1.4 1.4 62 2.7 E 26 33 14 18 1025.1 1025.1 0.0
24/01:00am 8.1 1.8 1.4 62 2.7 E 24 32 13 17 1025.0 1025.0 0.0
24/12:30am 8.1 2.1 1.1 61 2.8 E 22 28 12 15 1025.0 1025.0 0.0
24/12:00am 7.0 2.5 2.1 71 2.0 E 15 24 8 13 1024.8 1024.8 0.0
 
Date/Time
WST
Temp
°C
App
Temp
°C
Dew
Point
°C
Rel
Hum
%
Delta-T
°C
Wind Press
QNH
hPa
Press
MSL
hPa
Rain since
9am
mm
Dir  Spd
km/h
Gust
km/h
Spd
kts
Gust
kts
23/11:30pm 6.5 3.3 2.9 78 1.5 E 9 15 5 8 1024.9 1024.9 0.0
23/11:00pm 6.1 3.3 2.9 80 1.3 E 7 13 4 7 1025.0 1025.0 0.0
23/10:30pm 6.2 3.0 3.1 80 1.3 E 9 11 5 6 1024.9 1024.9 0.0
23/10:00pm 6.3 3.1 3.2 80 1.3 E 9 11 5 6 1024.9 1024.9 0.0
23/09:30pm 6.2 2.6 3.1 80 1.3 E 11 11 6 6 1024.9 1024.9 0.0
23/09:00pm 6.6 2.6 3.0 78 1.5 E 13 13 7 7 1024.9 1024.9 0.0
23/08:30pm 6.9 3.4 3.3 78 1.5 E 11 13 6 7 1024.7 1024.7 0.0
23/08:00pm 7.4 3.9 3.6 77 1.6 E 11 15 6 8 1024.5 1024.5 0.0
23/07:30pm 8.1 4.6 3.7 74 1.9 E 11 13 6 7 1024.2 1024.2 0.0
23/07:00pm 9.2 5.8 3.9 69 2.3 ESE 11 15 6 8 1023.9 1023.9 0.0
23/06:30pm 10.2 6.5 4.3 67 2.6 ESE 13 15 7 8 1023.6 1023.6 0.0
23/06:00pm 11.9 8.2 4.3 59 3.4 ESE 13 19 7 10 1023.3 1023.3 0.0
23/05:30pm 13.6 9.0 1.8 44 5.1 E 15 20 8 11 1023.0 1023.0 0.0
23/05:00pm 14.6 10.5 2.0 42 5.5 E 13 17 7 9 1022.7 1022.7 0.0
23/04:30pm 15.2 10.0 0.4 36 6.3 E 17 24 9 13 1022.6 1022.6 0.0
23/04:00pm 16.3 10.9 1.2 36 6.6 ESE 19 28 10 15 1022.4 1022.4 0.0
23/03:30pm 15.3 10.5 0.2 35 6.4 E 15 26 8 14 1022.3 1022.3 0.0
23/03:00pm 15.6 10.5 0.7 36 6.4 ESE 17 26 9 14 1022.4 1022.4 0.0
23/02:30pm 15.2 9.7 0.4 36 6.3 ESE 19 32 10 17 1022.4 1022.4 0.0
23/02:00pm 15.4 10.7 1.0 37 6.2 SE 15 20 8 11 1022.3 1022.3 0.0
23/01:30pm 15.9 11.1 0.2 34 6.7 SE 15 26 8 14 1022.4 1022.4 0.0
23/01:00pm 15.6 10.4 0.0 34 6.6 SE 17 26 9 14 1022.7 1022.7 0.0
23/12:30pm 15.1 10.6 -0.2 35 6.4 E 13 22 7 12 1023.2 1023.2 0.0
23/12:00pm 14.8 10.1 1.1 39 5.9 SE 15 20 8 11 1023.6 1023.6 0.0
23/11:30am 15.0 12.1 2.6 43 5.5 SSW 7 11 4 6 1024.1 1024.1 0.0
23/11:00am 13.7 10.0 2.2 45 5.0 ENE 11 - 6 - 1024.5 1024.5 0.0
23/10:30am 13.4 10.1 2.4 47 4.8 NNE 9 - 5 - 1024.9 1024.9 0.0
23/10:00am 12.6 9.0 2.7 51 4.3 NW 11 - 6 - 1025.1 1025.1 0.0
23/09:30am 11.6 9.0 4.2 60 3.3 NNW 7 9 4 5 1025.3 1025.3 0.0
23/09:00am 10.3 7.9 4.2 66 2.7 WNW 6 7 3 4 1025.3 1025.3 0.2
23/08:30am 8.4 5.9 4.5 76 1.7 WNW 7 9 4 5 1025.3 1025.3 0.2
23/08:00am 6.2 4.8 3.8 85 1.0 CALM 0 - 0 - 1025.2 1025.2 0.2
23/07:30am 3.6 2.0 2.6 93 0.4 CALM 0 - 0 - 1024.9 1024.9 0.2
23/07:00am 1.9 0.2 1.6 98 0.1 CALM 0 - 0 - 1024.8 1024.8 0.2
23/06:30am 1.9 0.1 1.4 96 0.2 CALM 0 - 0 - 1024.7 1024.7 0.2
23/06:00am 2.2 0.1 1.7 96 0.2 ESE 2 - 1 - 1024.5 1024.5 0.2
23/05:30am 2.5 0.8 2.0 96 0.2 CALM 0 - 0 - 1024.1 1024.1 0.0
23/05:00am 3.0 1.4 2.2 94 0.3 CALM 0 - 0 - 1024.1 1024.1 0.0
23/04:30am 3.1 1.5 2.3 94 0.3 CALM 0 - 0 - 1023.9 1023.9 0.0
23/04:00am 3.5 1.6 2.7 94 0.3 SSE 2 - 1 - 1023.7 1023.7 0.2
23/03:30am 3.7 1.0 2.7 93 0.4 SSE 6 - 3 - 1023.7 1023.7 0.2
23/03:00am 3.8 2.3 3.1 95 0.3 CALM 0 - 0 - 1023.8 1023.8 0.2
23/02:30am 4.3 2.9 3.3 93 0.4 CALM 0 - 0 - 1023.8 1023.8 0.2
23/02:00am 4.9 2.7 3.4 90 0.6 S 4 - 2 - 1023.9 1023.9 0.2
23/01:30am 4.0 1.4 3.0 93 0.4 S 6 - 3 - 1024.1 1024.1 0.2
23/01:00am 3.9 2.1 3.4 97 0.2 S 2 - 1 - 1024.1 1024.1 0.2
23/12:30am 4.3 1.6 3.6 95 0.3 WNW 7 7 4 4 1024.1 1024.1 0.2
23/12:00am 4.6 2.5 3.9 95 0.3 SSW 4 9 2 5 1024.2 1024.2 0.0
 
Date/Time
WST
Temp
°C
App
Temp
°C
Dew
Point
°C
Rel
Hum
%
Delta-T
°C
Wind Press
QNH
hPa
Press
MSL
hPa
Rain since
9am
mm
Dir  Spd
km/h
Gust
km/h
Spd
kts
Gust
kts
22/11:30pm 4.9 3.6 3.9 93 0.4 CALM 0 0 0 0 1024.2 1024.2 0.2
22/11:00pm 5.4 4.2 4.5 94 0.4 CALM 0 0 0 0 1024.3 1024.3 0.2
22/10:30pm 6.3 3.8 4.9 91 0.6 SSE 7 9 4 5 1024.5 1024.5 0.2
22/10:00pm 7.3 4.1 5.3 87 0.9 S 11 13 6 7 1024.5 1024.5 0.2
22/09:30pm 8.9 6.2 5.8 81 1.4 S 9 13 5 7 1024.5 1024.5 0.2
22/09:00pm 9.4 6.3 5.6 77 1.7 SSW 11 15 6 8 1024.3 1024.3 0.2
22/08:30pm 9.7 6.3 5.7 76 1.8 S 13 15 7 8 1024.0 1024.0 0.2
22/08:00pm 10.3 6.7 5.2 70 2.3 S 13 15 7 8 1023.6 1023.6 0.2
22/07:30pm 11.1 7.1 4.7 64 2.9 S 15 19 8 10 1023.4 1023.4 0.2
22/07:00pm 11.9 7.8 4.1 59 3.5 SSW 15 17 8 9 1023.0 1023.0 0.2
22/06:30pm 12.1 7.6 4.1 58 3.6 S 17 24 9 13 1022.6 1022.6 0.2
22/06:00pm 12.3 6.4 4.1 57 3.7 S 24 30 13 16 1022.2 1022.2 0.2
22/05:30pm 13.2 5.7 3.6 52 4.3 S 32 35 17 19 1021.8 1021.8 0.2
22/05:00pm 14.3 7.6 3.4 48 4.9 SSW 28 37 15 20 1021.4 1021.4 0.2
22/04:30pm 14.7 7.7 2.2 43 5.5 S 28 35 15 19 1021.1 1021.1 0.2
22/04:00pm 14.9 7.6 2.5 43 5.5 SSW 30 41 16 22 1021.1 1021.1 0.2
22/03:30pm 15.7 9.2 2.5 41 5.9 SSW 26 37 14 20 1020.8 1020.8 0.2
22/03:00pm 16.1 8.6 1.2 36 6.5 SSW 30 41 16 22 1020.8 1020.8 0.2
22/02:30pm 16.4 9.4 1.7 37 6.5 SSW 28 37 15 20 1020.8 1020.8 0.2
22/02:00pm 15.3 7.9 1.9 40 5.9 S 30 43 16 23 1020.9 1020.9 0.2
22/01:30pm 15.5 8.6 2.5 41 5.8 SSW 28 39 15 21 1021.2 1021.2 0.2
22/01:00pm 15.3 8.5 3.1 44 5.5 S 28 37 15 20 1021.4 1021.4 0.2
22/12:30pm 14.6 8.2 3.3 46 5.1 S 26 37 14 20 1021.7 1021.7 0.2
22/12:00pm 14.6 9.1 3.8 48 4.9 S 22 30 12 16 1022.1 1022.1 0.2
22/11:30am 14.3 8.6 4.8 53 4.4 S 24 33 13 18 1022.3 1022.3 0.2
22/11:00am 13.8 7.8 5.2 56 4.0 S 26 33 14 18 1022.7 1022.7 0.2
22/10:30am 13.1 7.4 5.1 58 3.7 S 24 33 13 18 1022.8 1022.8 0.2
22/10:00am 11.6 7.1 6.0 68 2.6 S 19 22 10 12 1022.7 1022.7 0.0
22/09:30am 10.3 6.6 6.4 77 1.8 SSW 15 19 8 10 1022.5 1022.5 0.0
22/09:00am 8.6 6.2 7.1 90 0.7 S 9 13 5 7 1022.3 1022.3 2.6
22/08:30am 6.9 4.7 6.2 95 0.3 SE 7 9 4 5 1022.1 1022.1 2.6
22/08:00am 5.9 4.2 5.7 99 0.1 SSE 4 7 2 4 1021.8 1021.8 2.6
22/07:30am 4.9 3.7 4.7 99 0.1 CALM 0 0 0 0 1021.3 1021.3 2.6
22/07:00am 4.8 2.5 4.6 99 0.1 SE 6 7 3 4 1020.6 1020.6 2.6
22/06:51am 4.9 3.4 4.9 100 0.0 SE 2 7 1 4 1020.6 1020.6 2.6
22/06:30am 5.3 3.4 5.1 99 0.1 SE 4 7 2 4 1020.2 1020.2 2.6
22/06:00am 5.4 4.3 5.2 99 0.1 CALM 0 0 0 0 1019.9 1019.9 2.6
22/05:30am 5.5 4.4 5.0 97 0.2 CALM 0 0 0 0 1019.5 1019.5 2.6
22/05:00am 4.5 1.9 4.3 99 0.1 SE 7 9 4 5 1019.0 1019.0 2.6
22/04:30am 5.0 3.0 4.3 95 0.3 S 4 9 2 5 1018.9 1018.9 2.6
22/04:00am 4.8 3.2 4.3 97 0.2 SW 2 6 1 3 1018.6 1018.6 2.6
22/03:55am 4.9 2.9 4.4 97 0.2 SW 4 6 2 3 1018.6 1018.6 2.6
22/03:41am 5.3 2.9 5.1 99 0.1 SW 7 9 4 5 1018.5 1018.5 2.6
22/03:30am 5.7 3.4 5.7 100 0.0 SW 7 9 4 5 1018.4 1018.4 2.6
22/03:00am 7.2 4.4 6.8 97 0.2 SW 11 13 6 7 1018.5 1018.5 2.6
22/02:30am 7.4 4.5 6.5 94 0.4 SW 11 13 6 7 1018.1 1018.1 2.6
22/02:00am 7.8 5.1 7.2 96 0.3 SSW 11 15 6 8 1018.1 1018.1 2.6
22/01:30am 7.9 4.8 7.3 96 0.3 SSW 13 17 7 9 1018.2 1018.2 2.6
22/01:00am 8.5 5.5 7.7 95 0.4 SSW 13 17 7 9 1018.2 1018.2 2.6
22/12:30am 9.0 6.0 7.5 90 0.7 SSW 13 17 7 9 1017.9 1017.9 2.6
22/12:00am 9.3 5.9 7.6 89 0.8 SSW 15 19 8 10 1017.7 1017.7 2.6
 
Date/Time
WST
Temp
°C
App
Temp
°C
Dew
Point
°C
Rel
Hum
%
Delta-T
°C
Wind Press
QNH
hPa
Press
MSL
hPa
Rain since
9am
mm
Dir  Spd
km/h
Gust
km/h
Spd
kts
Gust
kts
21/11:30pm 9.7 6.3 7.6 87 1.0 SSW 15 19 8 10 1017.8 1017.8 2.6
21/11:00pm 9.9 6.3 8.4 90 0.7 S 17 24 9 13 1017.5 1017.5 2.6
21/10:30pm 10.5 5.1 8.0 84 1.2 S 26 33 14 18 1017.2 1017.2 2.6
21/10:00pm 10.6 6.0 8.3 86 1.1 SSW 22 30 12 16 1017.1 1017.1 2.6

Other Formats:

Comma delimited format used in spreadsheet applications
http://www.bom.gov.au/fwo/IDW60801/IDW60801.94610.axf

JavaScript Object Notation format (JSON) in row-major order
http://www.bom.gov.au/fwo/IDW60801/IDW60801.94610.json